Time;durP1;ratioP1;P1;durP2;ratioP2;P2;SDS_P1;SDS_P2;PMS_P1;PMS_P2;Temp;Humidity;BMP_temperature;BMP_pressure;BME280_temperature;BME280_humidity;BME280_pressure;Samples;Min_cycle;Max_cycle;Signal;HPM_P1;HPM_P2
2020/12/19 00:02:22;;;;;;;14.93;6.65;;;8.20;99.90;;;;;;4934824;29;20043;-35
2020/12/19 00:04:47;;;;;;;15.45;8.52;;;8.20;99.90;;;;;;4928166;29;20066;-35
2020/12/19 00:07:13;;;;;;;20.08;9.23;;;8.20;99.90;;;;;;4945201;29;20028;-35
2020/12/19 00:09:39;;;;;;;19.13;8.82;;;8.20;99.90;;;;;;4972819;28;20036;-34
2020/12/19 00:12:05;;;;;;;15.88;8.20;;;8.10;99.90;;;;;;5050397;28;20078;-35
2020/12/19 00:14:32;;;;;;;16.42;6.38;;;8.10;99.90;;;;;;5041491;28;20033;-34
2020/12/19 00:16:57;;;;;;;14.05;6.88;;;8.10;99.90;;;;;;5051085;28;20078;-35
2020/12/19 00:19:23;;;;;;;16.60;8.68;;;8.00;99.90;;;;;;5050107;28;20025;-35
2020/12/19 00:21:49;;;;;;;14.95;6.78;;;8.00;99.90;;;;;;5048681;28;20493;-35
2020/12/19 00:24:15;;;;;;;15.68;6.85;;;8.00;99.90;;;;;;5050742;28;20095;-35
2020/12/19 00:26:42;;;;;;;16.10;7.85;;;8.00;99.90;;;;;;5052728;28;20823;-35
2020/12/19 00:29:10;;;;;;;19.90;9.50;;;8.00;99.90;;;;;;5032110;28;20482;-37
2020/12/19 00:31:36;;;;;;;15.40;8.90;;;7.90;99.90;;;;;;5032811;28;20029;-38
2020/12/19 00:34:03;;;;;;;19.23;10.35;;;7.90;99.90;;;;;;5049715;28;20477;-36
2020/12/19 00:36:29;;;;;;;18.48;9.80;;;7.90;99.90;;;;;;5054350;28;20044;-36
2020/12/19 00:38:55;;;;;;;19.23;10.02;;;7.80;99.90;;;;;;5050763;28;20108;-37
2020/12/19 00:41:23;;;;;;;17.50;9.80;;;7.90;99.90;;;;;;5052505;28;20025;-37
2020/12/19 00:43:49;;;;;;;19.45;10.50;;;7.80;99.90;;;;;;5049004;28;21526;-36
2020/12/19 00:46:18;;;;;;;17.23;10.80;;;7.80;99.90;;;;;;5051557;28;20050;-38
2020/12/19 00:48:44;;;;;;;20.65;9.95;;;7.70;99.90;;;;;;5044044;28;20044;-36
2020/12/19 00:51:14;;;;;;;18.52;10.02;;;7.80;99.90;;;;;;5052234;28;20378;-38
2020/12/19 00:53:41;;;;;;;20.38;10.13;;;7.80;99.90;;;;;;5017107;28;20034;-37
2020/12/19 00:56:15;;;;;;;17.10;9.18;;;7.80;99.90;;;;;;5049462;28;20045;-40
2020/12/19 00:58:40;;;;;;;18.27;9.88;;;7.80;99.90;;;;;;5043619;28;20453;-37
2020/12/19 01:01:06;;;;;;;16.17;8.70;;;7.80;99.90;;;;;;5041636;28;20157;-35
2020/12/19 01:03:32;;;;;;;18.85;9.55;;;7.80;99.90;;;;;;5052597;28;20083;-35
2020/12/19 01:05:57;;;;;;;18.27;9.15;;;7.80;99.90;;;;;;5048363;28;20033;-46
2020/12/19 01:08:23;;;;;;;15.48;7.70;;;7.80;99.90;;;;;;5013658;28;20117;-48
2020/12/19 01:10:48;;;;;;;16.30;8.82;;;7.80;99.90;;;;;;5048573;28;20045;-48
2020/12/19 01:13:14;;;;;;;19.75;11.23;;;7.80;99.90;;;;;;5048116;28;20037;-48
2020/12/19 01:15:39;;;;;;;20.70;8.80;;;7.80;99.90;;;;;;5042693;28;20029;-47
2020/12/19 01:18:05;;;;;;;17.58;10.38;;;7.80;99.90;;;;;;5041594;28;20033;-47
2020/12/19 01:20:30;;;;;;;15.80;7.35;;;7.70;99.90;;;;;;5049879;28;20021;-46
2020/12/19 01:22:56;;;;;;;17.60;8.70;;;7.80;99.90;;;;;;5048571;28;20025;-48
2020/12/19 01:25:22;;;;;;;21.58;11.55;;;7.70;99.90;;;;;;5043231;28;20371;-48
2020/12/19 01:27:47;;;;;;;21.25;10.95;;;7.70;99.90;;;;;;5051132;28;20034;-48
2020/12/19 01:30:13;;;;;;;14.52;7.55;;;7.70;99.90;;;;;;5040690;28;20099;-48
2020/12/19 01:32:38;;;;;;;20.17;10.48;;;7.70;99.90;;;;;;5050175;28;20066;-48
2020/12/19 01:35:04;;;;;;;20.88;11.38;;;7.70;99.90;;;;;;5029921;28;20037;-48
2020/12/19 01:37:29;;;;;;;21.63;10.73;;;7.60;99.90;;;;;;5039909;28;20034;-48
2020/12/19 01:39:55;;;;;;;17.25;9.20;;;7.60;99.90;;;;;;5036286;28;20032;-36
2020/12/19 01:42:20;;;;;;;18.77;10.95;;;7.60;99.90;;;;;;5049122;28;20039;-35
2020/12/19 01:44:46;;;;;;;20.15;13.32;;;7.60;99.90;;;;;;5052599;28;20571;-35
2020/12/19 01:47:12;;;;;;;19.65;10.80;;;7.50;99.90;;;;;;5042175;28;20068;-36
2020/12/19 01:49:38;;;;;;;13.68;5.57;;;7.50;99.90;;;;;;5044901;28;20021;-36
2020/12/19 01:52:07;;;;;;;18.75;10.23;;;7.50;99.90;;;;;;5018807;28;20103;-35
2020/12/19 01:54:33;;;;;;;20.27;11.10;;;7.60;99.90;;;;;;5051377;28;20106;-35
2020/12/19 01:57:01;;;;;;;22.80;11.85;;;7.50;99.90;;;;;;5046861;28;20033;-36
2020/12/19 01:59:28;;;;;;;18.00;9.07;;;7.50;99.90;;;;;;5021858;28;20371;-35
2020/12/19 02:01:56;;;;;;;21.52;10.40;;;7.50;99.90;;;;;;5043409;28;20034;-35
2020/12/19 02:04:24;;;;;;;15.35;7.55;;;7.50;99.90;;;;;;5038755;28;20039;-36
2020/12/19 02:06:52;;;;;;;16.00;9.52;;;7.50;99.90;;;;;;5037282;28;20037;-36
2020/12/19 02:09:35;;;;;;;17.27;8.50;;;7.50;99.90;;;;;;5030673;28;20033;-35
2020/12/19 02:12:05;;;;;;;20.90;11.52;;;7.50;99.90;;;;;;5014120;28;21152;-35
2020/12/19 02:14:31;;;;;;;20.40;10.43;;;7.50;99.90;;;;;;5028717;28;20040;-35
2020/12/19 02:16:58;;;;;;;24.25;10.40;;;7.40;99.90;;;;;;5029722;28;20056;-35
2020/12/19 02:19:25;;;;;;;16.15;7.32;;;7.40;99.90;;;;;;5046646;28;20028;-35
2020/12/19 02:21:51;;;;;;;21.67;11.13;;;7.40;99.90;;;;;;5043911;28;20069;-35
2020/12/19 02:24:17;;;;;;;22.77;11.15;;;7.40;99.90;;;;;;5052081;28;20041;-36
2020/12/19 02:26:52;;;;;;;21.40;10.52;;;7.40;99.90;;;;;;5049434;28;20055;-36
2020/12/19 02:29:18;;;;;;;21.40;12.20;;;7.40;99.90;;;;;;5043713;28;20056;-36
2020/12/19 02:31:45;;;;;;;22.38;11.77;;;7.40;99.90;;;;;;5048796;28;20025;-36
2020/12/19 02:34:11;;;;;;;21.08;11.55;;;7.40;99.90;;;;;;5051788;28;20125;-37
2020/12/19 02:36:38;;;;;;;19.20;10.43;;;7.40;99.90;;;;;;5044469;28;20083;-36
2020/12/19 02:39:05;;;;;;;22.02;12.05;;;7.40;99.90;;;;;;5036883;28;20025;-37
2020/12/19 02:41:43;;;;;;;16.50;8.57;;;7.40;99.90;;;;;;5044105;28;20385;-36
2020/12/19 02:44:18;;;;;;;18.88;8.77;;;7.40;99.90;;;;;;5045347;28;20056;-35
2020/12/19 02:46:44;;;;;;;18.25;10.20;;;7.40;99.90;;;;;;5048676;28;20497;-38
2020/12/19 02:49:10;;;;;;;21.92;9.52;;;7.40;99.90;;;;;;5041561;28;20151;-38
2020/12/19 02:51:36;;;;;;;19.90;11.05;;;7.40;99.90;;;;;;5050798;28;20108;-36
2020/12/19 02:54:02;;;;;;;20.13;11.73;;;7.30;99.90;;;;;;5051442;28;20377;-36
2020/12/19 02:56:28;;;;;;;18.90;10.10;;;7.40;99.90;;;;;;5039838;28;20412;-37
2020/12/19 02:58:54;;;;;;;19.92;10.80;;;7.30;99.90;;;;;;5046981;28;20056;-36
2020/12/19 03:01:19;;;;;;;20.83;10.70;;;7.30;99.90;;;;;;5045453;28;20025;-36
2020/12/19 03:03:45;;;;;;;19.45;7.50;;;7.30;99.90;;;;;;5050459;28;20064;-36
2020/12/19 03:06:11;;;;;;;21.90;11.25;;;7.30;99.90;;;;;;5036298;28;20359;-36
2020/12/19 03:08:36;;;;;;;15.90;7.88;;;7.30;99.90;;;;;;5048114;28;20521;-36
2020/12/19 03:11:02;;;;;;;21.98;10.50;;;7.30;99.90;;;;;;5044314;28;20048;-36
2020/12/19 03:13:27;;;;;;;19.63;9.77;;;7.30;99.90;;;;;;5047096;28;20060;-38
2020/12/19 03:15:53;;;;;;;18.98;11.00;;;7.30;99.90;;;;;;5049957;28;20111;-36
2020/12/19 03:18:19;;;;;;;18.52;10.02;;;7.30;99.90;;;;;;5050857;28;20036;-36
2020/12/19 03:20:44;;;;;;;21.20;10.98;;;7.30;99.90;;;;;;5050816;28;20024;-36
2020/12/19 03:23:10;;;;;;;21.52;9.65;;;7.30;99.90;;;;;;5050550;28;20077;-36
2020/12/19 03:25:35;;;;;;;12.70;7.28;;;7.30;99.90;;;;;;5030305;28;20040;-36
2020/12/19 03:28:01;;;;;;;19.15;9.55;;;7.30;99.90;;;;;;5042592;28;20033;-36
2020/12/19 03:30:27;;;;;;;13.35;6.35;;;7.30;99.90;;;;;;5047199;28;20036;-35
2020/12/19 03:32:53;;;;;;;22.25;11.55;;;7.30;99.90;;;;;;5016608;28;20087;-36
2020/12/19 03:35:19;;;;;;;18.70;9.00;;;7.30;99.90;;;;;;5046338;28;20042;-35
2020/12/19 03:37:45;;;;;;;20.25;11.93;;;7.30;99.90;;;;;;5043184;28;20044;-36
2020/12/19 03:40:11;;;;;;;18.40;9.40;;;7.30;99.90;;;;;;5047438;28;20029;-36
2020/12/19 03:42:36;;;;;;;14.65;7.03;;;7.30;99.90;;;;;;5051106;28;20115;-35
2020/12/19 03:45:04;;;;;;;19.52;10.65;;;7.30;99.90;;;;;;5048502;28;20049;-36
2020/12/19 03:47:30;;;;;;;18.83;8.07;;;7.30;99.90;;;;;;5025990;28;20029;-35
2020/12/19 03:49:55;;;;;;;14.82;6.82;;;7.30;99.90;;;;;;5049095;28;20052;-36
2020/12/19 03:52:21;;;;;;;19.30;10.40;;;7.40;99.90;;;;;;5050482;28;20036;-36
2020/12/19 03:54:46;;;;;;;15.43;7.90;;;7.40;99.90;;;;;;5047900;28;20089;-36
2020/12/19 03:57:15;;;;;;;19.77;10.90;;;7.40;99.90;;;;;;5050424;28;20033;-36
2020/12/19 03:59:40;;;;;;;16.10;7.43;;;7.40;99.90;;;;;;5047764;28;20053;-37
2020/12/19 04:02:06;;;;;;;21.00;11.23;;;7.40;99.90;;;;;;5038446;28;20032;-36
2020/12/19 04:04:31;;;;;;;19.20;7.70;;;7.40;99.90;;;;;;5039624;28;20044;-35
2020/12/19 04:06:57;;;;;;;20.23;9.05;;;7.40;99.90;;;;;;5038285;28;20036;-37
2020/12/19 04:09:23;;;;;;;16.20;7.50;;;7.40;99.90;;;;;;5054997;28;20561;-35
2020/12/19 04:11:48;;;;;;;18.02;8.70;;;7.50;99.90;;;;;;5056502;28;20437;-36
2020/12/19 04:14:14;;;;;;;12.45;6.68;;;7.50;99.90;;;;;;5046948;28;20033;-36
2020/12/19 04:16:39;;;;;;;11.50;5.72;;;7.50;99.90;;;;;;5039776;28;20488;-36
2020/12/19 04:19:05;;;;;;;22.27;9.93;;;7.50;99.90;;;;;;5055531;28;20059;-36
2020/12/19 04:21:31;;;;;;;17.83;9.57;;;7.50;99.90;;;;;;5053385;28;20036;-35
2020/12/19 04:23:57;;;;;;;20.45;9.55;;;7.60;99.90;;;;;;5048858;28;20067;-48
2020/12/19 04:26:22;;;;;;;21.33;7.25;;;7.60;99.90;;;;;;5056722;28;20041;-48
2020/12/19 04:28:48;;;;;;;17.73;9.60;;;7.60;99.90;;;;;;5041668;28;20025;-48
2020/12/19 04:31:13;;;;;;;18.20;8.98;;;7.70;99.90;;;;;;5047565;28;20059;-48
2020/12/19 04:33:39;;;;;;;13.63;8.15;;;7.70;99.90;;;;;;5051840;28;20044;-46
2020/12/19 04:36:04;;;;;;;8.63;4.25;;;7.70;99.90;;;;;;5052313;28;20060;-48
2020/12/19 04:38:30;;;;;;;13.90;9.05;;;7.70;99.90;;;;;;5027820;28;20030;-47
2020/12/19 04:40:59;;;;;;;15.40;9.15;;;7.80;99.90;;;;;;5032387;28;20103;-48
2020/12/19 04:43:26;;;;;;;17.25;7.88;;;7.80;99.90;;;;;;5057588;28;20048;-48
2020/12/19 04:45:51;;;;;;;17.02;9.38;;;7.90;99.90;;;;;;5041072;28;20048;-48
2020/12/19 04:48:23;;;;;;;16.48;9.43;;;7.90;99.90;;;;;;5046443;28;20220;-36
2020/12/19 04:50:49;;;;;;;;;;;7.80;99.90;;;;;;5048838;28;20018;-36
2020/12/19 04:53:19;;;;;;;17.05;8.32;;;7.90;99.90;;;;;;5053387;28;19909;-35
2020/12/19 04:55:45;;;;;;;9.15;4.15;;;7.90;99.90;;;;;;5035935;28;20037;-36
2020/12/19 04:58:16;;;;;;;18.45;8.82;;;8.00;99.90;;;;;;5048885;28;20036;-35
2020/12/19 05:00:42;;;;;;;16.17;8.77;;;8.00;99.90;;;;;;5055617;28;20049;-36
2020/12/19 05:03:09;;;;;;;16.65;8.70;;;8.00;99.90;;;;;;5056282;28;20029;-35
2020/12/19 05:05:40;;;;;;;15.18;7.30;;;8.10;99.90;;;;;;5036220;28;20584;-36
2020/12/19 05:08:06;;;;;;;15.80;8.68;;;8.10;99.90;;;;;;5023680;28;20533;-36
2020/12/19 05:10:31;;;;;;;10.35;5.95;;;8.10;99.90;;;;;;5051539;28;20112;-35
2020/12/19 05:12:57;;;;;;;19.77;9.65;;;8.20;99.90;;;;;;5051816;28;20032;-36
2020/12/19 05:15:23;;;;;;;15.90;8.50;;;8.30;99.90;;;;;;5028637;28;20029;-36
2020/12/19 05:17:53;;;;;;;13.75;7.95;;;8.40;99.90;;;;;;5040073;28;20466;-37
2020/12/19 05:20:27;;;;;;;17.35;9.05;;;8.40;99.90;;;;;;5044048;28;20047;-35
2020/12/19 05:22:53;;;;;;;19.60;8.07;;;8.40;99.90;;;;;;5021297;28;20066;-36
2020/12/19 05:25:21;;;;;;;17.05;7.00;;;8.50;99.90;;;;;;5052526;28;20041;-35
2020/12/19 05:27:48;;;;;;;18.00;9.18;;;8.50;99.90;;;;;;5043674;28;20029;-36
2020/12/19 05:30:16;;;;;;;15.60;5.57;;;8.40;99.90;;;;;;5046436;28;20098;-35
2020/12/19 05:32:45;;;;;;;14.77;6.43;;;8.40;99.90;;;;;;5035309;28;20466;-35
2020/12/19 05:35:11;;;;;;;18.95;9.80;;;8.50;99.90;;;;;;5048645;28;20040;-36
2020/12/19 05:37:37;;;;;;;17.02;8.13;;;8.60;99.90;;;;;;5040495;28;20033;-35
2020/12/19 05:40:12;;;;;;;20.73;9.18;;;8.60;99.90;;;;;;5034121;28;20090;-36
2020/12/19 05:42:40;;;;;;;23.60;6.57;;;8.60;99.90;;;;;;5053432;28;20037;-35
2020/12/19 05:45:16;;;;;;;20.30;10.30;;;8.60;99.90;;;;;;5051653;28;20129;-35
2020/12/19 05:47:42;;;;;;;16.27;7.82;;;8.70;99.90;;;;;;5043947;28;20355;-36
2020/12/19 05:50:08;;;;;;;19.60;8.77;;;8.70;99.90;;;;;;5049228;28;20031;-35
2020/12/19 05:52:36;;;;;;;17.90;9.38;;;8.70;99.90;;;;;;5053564;28;20025;-35
2020/12/19 05:55:05;;;;;;;13.85;6.53;;;8.70;99.90;;;;;;5029348;28;20040;-35
2020/12/19 05:57:33;;;;;;;19.63;9.70;;;8.80;99.90;;;;;;5029178;28;20433;-35
2020/12/19 05:59:59;;;;;;;16.95;7.63;;;8.80;99.90;;;;;;5034718;28;20128;-35
2020/12/19 06:02:29;;;;;;;15.52;7.20;;;8.80;99.90;;;;;;5051124;28;20032;-48
2020/12/19 06:04:57;;;;;;;19.92;9.93;;;8.80;99.90;;;;;;5050324;28;20121;-48
2020/12/19 06:07:23;;;;;;;16.58;7.57;;;8.80;99.90;;;;;;5045621;28;20477;-48
2020/12/19 06:09:49;;;;;;;18.30;9.02;;;8.80;99.90;;;;;;5051500;28;20029;-48
2020/12/19 06:12:23;;;;;;;17.05;8.07;;;8.80;99.90;;;;;;5044893;28;20041;-48
2020/12/19 06:14:51;;;;;;;18.10;7.72;;;8.80;99.90;;;;;;5049912;28;20036;-48
2020/12/19 06:17:27;;;;;;;21.25;10.20;;;8.90;99.90;;;;;;5046399;28;20040;-48
2020/12/19 06:19:53;;;;;;;20.13;8.82;;;8.80;99.90;;;;;;5051610;28;20374;-48
2020/12/19 06:22:28;;;;;;;20.55;9.00;;;8.90;99.90;;;;;;5032582;28;20037;-48
2020/12/19 06:24:54;;;;;;;19.10;8.57;;;8.80;99.90;;;;;;5049757;28;20044;-47
2020/12/19 06:27:22;;;;;;;18.90;9.13;;;8.80;99.90;;;;;;5028002;28;20021;-48
2020/12/19 06:29:49;;;;;;;18.83;9.60;;;8.80;99.90;;;;;;5022202;28;20040;-48
2020/12/19 06:32:19;;;;;;;19.00;8.18;;;8.80;99.90;;;;;;5047268;28;20057;-48
2020/12/19 06:34:57;;;;;;;22.08;10.63;;;8.80;99.90;;;;;;5036887;28;20343;-48
2020/12/19 06:37:25;;;;;;;21.27;10.02;;;8.70;99.90;;;;;;5036054;28;20032;-48
2020/12/19 06:40:21;;;;;;;17.95;8.57;;;8.70;99.90;;;;;;5042845;28;20029;-48
2020/12/19 06:42:48;;;;;;;24.63;10.27;;;8.70;99.90;;;;;;4967647;28;20530;-48
2020/12/19 06:45:34;;;;;;;16.77;7.90;;;8.70;99.90;;;;;;4969171;28;20559;-47
2020/12/19 06:48:00;;;;;;;17.73;7.60;;;8.80;99.90;;;;;;4958101;28;20381;-47
2020/12/19 06:50:54;;;;;;;15.57;7.35;;;8.80;99.90;;;;;;4965739;28;20049;-48
2020/12/19 06:53:20;;;;;;;20.33;11.63;;;8.80;99.90;;;;;;4969720;28;20058;-48
2020/12/19 06:55:45;;;;;;;17.15;7.85;;;8.70;99.90;;;;;;4968535;28;20046;-48
2020/12/19 06:58:11;;;;;;;20.25;10.25;;;8.70;99.90;;;;;;4969947;28;20038;-48
2020/12/19 07:00:37;;;;;;;17.63;6.75;;;8.60;99.90;;;;;;4970598;28;20069;-48
2020/12/19 07:03:04;;;;;;;23.38;9.73;;;8.70;99.90;;;;;;4969211;28;20110;-48
2020/12/19 07:05:31;;;;;;;20.42;10.20;;;8.70;99.90;;;;;;4959039;28;20149;-48
2020/12/19 07:08:19;;;;;;;18.55;8.48;;;8.70;99.90;;;;;;4962862;28;20074;-35
2020/12/19 07:10:45;;;;;;;21.33;10.82;;;8.60;99.90;;;;;;4959392;28;20558;-36
2020/12/19 07:13:11;;;;;;;20.70;9.65;;;8.60;99.90;;;;;;4970003;28;20042;-35
2020/12/19 07:15:46;;;;;;;22.63;10.48;;;8.70;99.90;;;;;;4968392;28;20043;-35
2020/12/19 07:18:34;;;;;;;17.63;8.57;;;8.70;99.90;;;;;;4971449;28;20058;-37
2020/12/19 07:21:08;;;;;;;14.00;6.93;;;8.70;99.90;;;;;;5032566;28;20025;-34
2020/12/19 07:23:36;;;;;;;23.50;10.65;;;8.70;99.90;;;;;;5050721;28;20059;-35
2020/12/19 07:26:03;;;;;;;21.77;11.50;;;8.70;99.90;;;;;;5032411;28;20032;-34
2020/12/19 07:28:28;;;;;;;21.65;10.88;;;8.70;99.90;;;;;;5051309;28;20024;-34
2020/12/19 07:30:54;;;;;;;17.73;8.88;;;8.80;99.90;;;;;;5048883;28;20040;-35
2020/12/19 07:33:20;;;;;;;22.05;11.55;;;8.80;99.90;;;;;;5048980;28;20029;-36
2020/12/19 07:35:46;;;;;;;20.63;11.05;;;8.80;99.90;;;;;;5047285;28;20111;-36
2020/12/19 07:38:12;;;;;;;17.20;8.75;;;8.90;99.90;;;;;;5049842;28;20031;-35
2020/12/19 07:40:38;;;;;;;17.75;6.72;;;8.90;99.90;;;;;;5049293;28;20021;-36
2020/12/19 07:43:07;;;;;;;21.52;9.88;;;9.00;99.90;;;;;;5050616;28;20047;-34
2020/12/19 07:45:35;;;;;;;20.70;11.45;;;9.00;99.90;;;;;;5046623;28;20066;-35
2020/12/19 07:48:01;;;;;;;19.52;9.40;;;9.00;99.90;;;;;;5050176;28;20043;-35
2020/12/19 07:50:28;;;;;;;18.88;8.18;;;9.00;99.90;;;;;;5048893;28;20033;-36
2020/12/19 07:53:00;;;;;;;18.10;10.35;;;9.10;99.90;;;;;;5046389;28;20029;-36
2020/12/19 07:55:26;;;;;;;21.00;10.45;;;9.10;99.90;;;;;;5044428;28;20509;-35
2020/12/19 07:57:55;;;;;;;21.70;10.90;;;9.10;99.90;;;;;;5044195;28;20029;-35
2020/12/19 08:00:24;;;;;;;19.75;9.60;;;9.10;99.90;;;;;;5040320;28;20041;-48
2020/12/19 08:02:51;;;;;;;22.33;10.15;;;9.10;99.90;;;;;;5048849;28;20116;-48
2020/12/19 08:05:16;;;;;;;19.27;8.93;;;9.10;99.90;;;;;;5047233;28;20048;-48
2020/12/19 08:07:42;;;;;;;21.25;9.13;;;9.10;99.90;;;;;;5033895;28;20037;-48
2020/12/19 08:10:14;;;;;;;17.40;8.63;;;9.10;99.90;;;;;;5039356;28;20080;-48
2020/12/19 08:12:40;;;;;;;;;;;9.10;99.90;;;;;;5035313;28;20070;-47
2020/12/19 08:15:07;;;;;;;13.68;7.05;;;9.20;99.90;;;;;;5046020;28;19913;-47
2020/12/19 08:17:46;;;;;;;17.50;9.40;;;9.30;99.90;;;;;;5031316;28;20116;-48
2020/12/19 08:20:12;;;;;;;18.10;8.50;;;9.20;99.90;;;;;;5047953;28;20104;-48
2020/12/19 08:22:40;;;;;;;15.02;8.38;;;9.30;99.90;;;;;;5049456;28;20141;-48
2020/12/19 08:25:09;;;;;;;10.02;5.05;;;9.30;99.90;;;;;;5025798;28;21253;-48
2020/12/19 08:27:44;;;;;;;14.30;6.13;;;9.30;99.90;;;;;;5031318;28;20021;-48
2020/12/19 08:30:13;;;;;;;18.38;9.05;;;9.40;99.90;;;;;;5048997;28;20048;-48
2020/12/19 08:32:47;;;;;;;16.80;9.02;;;9.30;99.90;;;;;;5046291;28;20022;-48
2020/12/19 08:35:23;;;;;;;12.35;5.00;;;9.30;99.90;;;;;;5044540;28;20470;-47
2020/12/19 08:37:50;;;;;;;15.73;7.88;;;9.30;99.90;;;;;;5048960;28;20036;-48
2020/12/19 08:40:19;;;;;;;15.57;8.18;;;9.30;99.90;;;;;;5050371;28;20231;-48
2020/12/19 08:42:47;;;;;;;18.65;8.40;;;9.30;99.90;;;;;;5037420;28;20033;-47
2020/12/19 08:45:26;;;;;;;15.35;6.85;;;9.30;99.90;;;;;;5045691;28;20039;-48
2020/12/19 08:47:55;;;;;;;19.55;7.78;;;9.30;99.90;;;;;;5034607;28;20037;-48
2020/12/19 08:50:26;;;;;;;15.18;6.90;;;9.30;99.90;;;;;;5030805;28;20108;-48
2020/12/19 08:53:05;;;;;;;13.02;6.30;;;9.30;99.90;;;;;;5052536;28;20071;-48
2020/12/19 08:55:31;;;;;;;10.70;4.75;;;9.30;99.90;;;;;;5036058;28;20037;-47
2020/12/19 08:57:57;;;;;;;12.27;6.10;;;9.40;99.90;;;;;;5029895;28;20068;-47
2020/12/19 09:00:23;;;;;;;14.98;7.60;;;9.40;99.90;;;;;;5027229;28;20073;-48
2020/12/19 09:02:55;;;;;;;15.23;4.90;;;9.40;99.90;;;;;;5046311;28;20029;-48
2020/12/19 09:05:35;;;;;;;13.50;7.57;;;9.40;99.90;;;;;;5023232;28;20387;-38
2020/12/19 09:08:01;;;;;;;13.68;6.78;;;9.40;99.90;;;;;;5044519;28;20495;-38
2020/12/19 09:10:32;;;;;;;12.65;5.25;;;9.40;99.90;;;;;;5042812;28;20112;-38
2020/12/19 09:13:20;;;;;;;17.08;7.35;;;9.40;99.90;;;;;;5043977;28;20025;-38
2020/12/19 09:15:48;;;;;;;12.88;5.68;;;9.50;99.90;;;;;;5046542;28;20435;-38
2020/12/19 09:18:19;;;;;;;12.57;5.07;;;9.50;99.90;;;;;;5030330;28;20082;-36
2020/12/19 09:20:50;;;;;;;11.20;6.03;;;9.60;99.90;;;;;;5055208;28;20029;-38
2020/12/19 09:23:15;;;;;;;13.68;6.25;;;9.60;99.90;;;;;;5056483;28;20064;-38
2020/12/19 09:25:41;;;;;;;15.50;5.53;;;9.60;99.90;;;;;;5053366;28;20071;-38
2020/12/19 09:28:06;;;;;;;12.95;5.63;;;9.60;99.90;;;;;;5035834;28;20028;-37
2020/12/19 09:30:32;;;;;;;13.93;6.55;;;9.70;99.90;;;;;;5039587;28;20048;-36
2020/12/19 09:32:58;;;;;;;13.07;5.28;;;9.70;99.90;;;;;;5031184;28;20091;-39
2020/12/19 09:35:26;;;;;;;8.63;3.95;;;9.70;99.90;;;;;;5051886;28;20389;-37
2020/12/19 09:37:52;;;;;;;12.50;4.90;;;9.80;99.90;;;;;;5053036;28;20028;-38
2020/12/19 09:40:17;;;;;;;14.77;5.80;;;9.80;99.90;;;;;;5044341;28;20047;-38
2020/12/19 09:42:43;;;;;;;11.10;4.72;;;9.80;99.90;;;;;;5024717;28;20176;-38
2020/12/19 09:45:08;;;;;;;15.98;5.43;;;9.80;99.90;;;;;;5043754;28;20115;-37
2020/12/19 09:47:34;;;;;;;9.50;4.45;;;9.80;99.90;;;;;;5046370;28;20067;-36
2020/12/19 09:50:00;;;;;;;15.18;5.82;;;9.90;99.90;;;;;;5046069;28;20025;-38
2020/12/19 09:52:25;;;;;;;9.10;4.78;;;9.90;99.90;;;;;;5041697;28;20136;-37
2020/12/19 09:54:51;;;;;;;5.88;3.22;;;9.90;99.90;;;;;;5048266;28;20096;-39
2020/12/19 09:57:16;;;;;;;7.45;3.15;;;9.90;99.90;;;;;;5019777;28;20044;-37
2020/12/19 09:59:44;;;;;;;6.97;3.15;;;10.00;99.90;;;;;;5028475;28;20102;-37
2020/12/19 10:02:09;;;;;;;11.07;4.78;;;9.90;99.90;;;;;;5032635;28;20017;-37
2020/12/19 10:04:35;;;;;;;8.90;4.40;;;10.00;99.90;;;;;;5049517;28;20114;-37
2020/12/19 10:07:00;;;;;;;10.18;3.72;;;10.00;99.90;;;;;;5048399;28;20033;-37
2020/12/19 10:09:26;;;;;;;13.95;4.65;;;10.00;99.90;;;;;;5046971;28;20832;-37
2020/12/19 10:11:56;;;;;;;8.25;2.85;;;10.00;99.90;;;;;;5049897;28;20421;-37
2020/12/19 10:14:22;;;;;;;8.20;3.28;;;10.00;99.90;;;;;;5045793;28;20043;-43
2020/12/19 10:16:47;;;;;;;12.43;5.65;;;10.00;99.90;;;;;;5042672;28;20064;-39
2020/12/19 10:19:13;;;;;;;16.75;6.60;;;9.90;99.90;;;;;;5047334;28;20075;-38
2020/12/19 10:21:38;;;;;;;11.43;3.80;;;9.90;99.90;;;;;;5045915;28;20029;-41
2020/12/19 10:24:04;;;;;;;13.07;6.97;;;9.70;99.90;;;;;;5030312;28;20041;-38
2020/12/19 10:26:29;;;;;;;10.77;5.45;;;9.70;99.90;;;;;;5029449;28;20417;-40
2020/12/19 10:28:55;;;;;;;16.00;5.20;;;9.60;99.90;;;;;;5047380;28;20037;-41
2020/12/19 10:31:29;;;;;;;13.20;6.80;;;9.70;99.90;;;;;;5049841;28;20118;-41
2020/12/19 10:33:54;;;;;;;12.13;5.40;;;9.60;99.90;;;;;;5045116;28;20397;-39
2020/12/19 10:36:20;;;;;;;13.25;5.85;;;9.60;99.90;;;;;;5048393;28;20028;-40
2020/12/19 10:38:46;;;;;;;12.15;6.20;;;9.60;99.90;;;;;;5048580;28;20182;-39
2020/12/19 10:41:16;;;;;;;14.68;5.28;;;9.50;99.90;;;;;;5027469;28;20033;-40
2020/12/19 10:43:42;;;;;;;14.02;5.28;;;9.60;99.90;;;;;;5047414;28;20540;-39
2020/12/19 10:46:08;;;;;;;13.02;6.22;;;9.60;99.90;;;;;;5044696;28;20045;-40
2020/12/19 10:48:34;;;;;;;12.98;5.28;;;9.60;99.90;;;;;;5032039;28;20466;-38
2020/12/19 10:51:00;;;;;;;10.48;5.40;;;9.60;99.90;;;;;;5044547;28;20032;-40
2020/12/19 10:53:26;;;;;;;13.20;4.82;;;9.60;99.90;;;;;;5047482;28;20393;-40
2020/12/19 10:55:51;;;;;;;10.70;4.80;;;9.70;99.90;;;;;;5044616;28;20037;-39
2020/12/19 10:58:17;;;;;;;13.35;5.47;;;9.60;99.90;;;;;;5044891;28;20198;-39
2020/12/19 11:00:43;;;;;;;14.55;5.03;;;9.60;99.90;;;;;;5044499;28;20041;-38
2020/12/19 11:03:09;;;;;;;7.90;3.65;;;9.60;99.90;;;;;;5044607;28;20033;-39
2020/12/19 11:05:41;;;;;;;9.95;5.22;;;9.60;99.90;;;;;;5042176;28;20033;-38
2020/12/19 11:08:08;;;;;;;6.15;2.53;;;9.60;99.90;;;;;;5030019;28;20435;-40
2020/12/19 11:10:34;;;;;;;8.90;3.42;;;9.60;99.90;;;;;;5044956;28;20066;-38
2020/12/19 11:13:03;;;;;;;17.88;6.63;;;9.50;99.90;;;;;;5048555;28;20112;-39
2020/12/19 11:15:32;;;;;;;8.45;3.75;;;9.50;99.90;;;;;;5049138;28;20037;-39
2020/12/19 11:17:58;;;;;;;13.98;6.07;;;9.50;99.90;;;;;;5046145;28;20037;-37
2020/12/19 11:20:24;;;;;;;10.43;5.10;;;9.40;99.90;;;;;;5046059;28;20098;-40
2020/12/19 11:22:50;;;;;;;8.43;4.05;;;9.40;99.90;;;;;;5030111;28;20044;-38
2020/12/19 11:25:16;;;;;;;14.75;4.13;;;9.40;99.90;;;;;;5049099;28;20049;-43
2020/12/19 11:27:43;;;;;;;10.70;5.25;;;9.40;99.90;;;;;;5049529;28;20048;-42
2020/12/19 11:30:09;;;;;;;12.55;5.15;;;9.40;99.90;;;;;;5047247;28;20413;-41
2020/12/19 11:32:35;;;;;;;10.07;6.13;;;9.40;99.90;;;;;;5028321;28;20029;-40
2020/12/19 11:35:02;;;;;;;10.07;3.53;;;9.40;99.90;;;;;;5048301;28;20103;-39
2020/12/19 11:37:27;;;;;;;12.77;5.55;;;9.40;99.90;;;;;;5031412;28;20524;-40
2020/12/19 11:39:53;;;;;;;10.70;5.13;;;9.40;99.90;;;;;;5045397;28;20536;-40
2020/12/19 11:42:20;;;;;;;8.18;4.20;;;9.50;99.90;;;;;;5043171;28;20389;-38
2020/12/19 11:44:46;;;;;;;11.85;5.63;;;9.50;99.90;;;;;;5025788;28;20045;-37
2020/12/19 11:47:12;;;;;;;7.20;3.78;;;9.50;99.90;;;;;;5043858;28;20037;-39
2020/12/19 11:49:39;;;;;;;15.75;6.28;;;9.50;99.90;;;;;;5041154;28;20037;-43
2020/12/19 11:52:09;;;;;;;9.15;4.70;;;9.50;99.90;;;;;;5047451;28;20036;-36
2020/12/19 11:54:35;;;;;;;9.38;5.43;;;9.50;99.90;;;;;;5048664;28;20163;-38
2020/12/19 11:57:02;;;;;;;5.15;2.50;;;9.50;99.90;;;;;;5046342;28;20036;-44
2020/12/19 11:59:27;;;;;;;14.63;5.95;;;9.50;99.90;;;;;;5033562;28;20443;-37
2020/12/19 12:01:53;;;;;;;8.93;4.43;;;9.50;99.90;;;;;;5044378;28;20029;-36
2020/12/19 12:04:18;;;;;;;12.65;6.60;;;9.40;99.90;;;;;;5021483;28;20446;-36
2020/12/19 12:06:45;;;;;;;15.82;5.88;;;9.50;99.90;;;;;;5028020;28;20045;-37
2020/12/19 12:09:12;;;;;;;10.25;4.30;;;9.50;99.90;;;;;;5047671;28;20501;-42
2020/12/19 12:11:37;;;;;;;10.02;4.90;;;9.40;99.90;;;;;;5027594;28;20123;-38
2020/12/19 12:14:03;;;;;;;8.27;4.13;;;9.40;99.90;;;;;;5030835;28;20529;-38
2020/12/19 12:16:29;;;;;;;10.93;5.93;;;9.40;99.90;;;;;;5051651;28;20048;-39
2020/12/19 12:18:56;;;;;;;11.63;6.47;;;9.40;99.90;;;;;;5042426;28;20021;-41
2020/12/19 12:21:23;;;;;;;10.15;4.63;;;9.50;99.90;;;;;;5032486;28;20508;-37
2020/12/19 12:23:48;;;;;;;15.80;6.57;;;9.50;99.90;;;;;;5054352;28;20028;-38
2020/12/19 12:26:25;;;;;;;10.75;5.40;;;9.50;99.90;;;;;;5036791;28;20044;-37
2020/12/19 12:28:51;;;;;;;13.20;6.72;;;9.60;99.90;;;;;;5054758;28;20033;-38
2020/12/19 12:31:22;;;;;;;17.02;6.53;;;9.60;99.90;;;;;;5054851;28;20117;-38
2020/12/19 12:33:47;;;;;;;11.05;5.32;;;9.60;99.90;;;;;;5051882;28;20029;-37
2020/12/19 12:36:13;;;;;;;7.90;4.13;;;9.70;99.90;;;;;;5053636;28;20035;-37
2020/12/19 12:38:39;;;;;;;1153.68;741.38;;;9.70;99.90;;;;;;5036823;28;20036;-38
2020/12/19 12:41:06;;;;;;;73.10;43.92;;;9.70;99.90;;;;;;5036233;28;20437;-36
2020/12/19 12:43:32;;;;;;;602.65;457.77;;;9.70;99.90;;;;;;5054271;28;20040;-34
2020/12/19 12:45:57;;;;;;;25.90;16.60;;;9.70;99.90;;;;;;5035523;28;20119;-37
2020/12/19 12:48:23;;;;;;;163.73;91.07;;;9.70;99.90;;;;;;5035137;28;20077;-37